Terminal Aerodrome Forecast
Issued by NWS

Current Version | Previous Version | Text Only | Print | Product List | Glossary On
Versions: 1 2 3 4 5 6 7 8 9 10 11 12 13 14 15 16 17 18 19 20 21 22 23 24 25 26 27 28 29
000
FTUS45 KSLC 021740
TAFENV
TAF
KENV 021740Z 0218/0318 14008KT P6SM SCT150 BKN200
     FM030200 23013G21KT P6SM SCT100 BKN150
     FM030900 30011G18KT P6SM FEW100 BKN150
      AMD LTD TO CLD VIS AND WIND=

USA.gov is the U.S. government's official web portal to all federal, state and local government web resources and services.